createdAt,value
2022-10-09T00:00:31.977Z,8.65
2022-10-09T00:01:31.958Z,8.66
2022-10-09T00:02:31.999Z,8.66
2022-10-09T00:03:31.942Z,8.66
2022-10-09T00:04:31.934Z,8.66
2022-10-09T00:05:31.946Z,8.68
2022-10-09T00:06:31.900Z,8.65
2022-10-09T00:07:31.877Z,8.65
2022-10-09T00:08:31.881Z,8.63
2022-10-09T00:09:31.880Z,8.63
2022-10-09T00:10:31.860Z,8.62
2022-10-09T00:11:31.840Z,8.60
2022-10-09T00:12:31.817Z,8.58
2022-10-09T00:13:31.806Z,8.57
2022-10-09T00:14:32.128Z,8.57
2022-10-09T00:15:31.791Z,8.55
2022-10-09T00:16:31.833Z,8.55
2022-10-09T00:17:31.757Z,8.54
2022-10-09T00:18:31.754Z,8.54
2022-10-09T00:19:32.037Z,8.53
2022-10-09T00:20:31.728Z,8.53
2022-10-09T00:21:31.733Z,8.53
2022-10-09T00:22:31.699Z,8.54
2022-10-09T00:23:31.689Z,8.53
2022-10-09T00:24:31.922Z,8.53
2022-10-09T00:25:31.688Z,8.51
2022-10-09T00:26:31.683Z,8.51
2022-10-09T00:27:31.645Z,8.50
2022-10-09T00:28:35.345Z,8.50
2022-10-09T00:29:32.646Z,8.50
2022-10-09T00:30:31.927Z,8.48
2022-10-09T00:31:31.614Z,8.45
2022-10-09T00:32:31.601Z,8.45
2022-10-09T00:33:31.584Z,8.44
2022-10-09T00:34:31.561Z,8.44
2022-10-09T00:35:31.767Z,8.44
2022-10-09T00:36:31.541Z,8.44
2022-10-09T00:37:31.531Z,8.44
2022-10-09T00:38:31.535Z,8.44
2022-10-09T00:39:31.502Z,8.44
2022-10-09T00:40:31.755Z,8.44
2022-10-09T00:41:31.522Z,8.44
2022-10-09T00:42:31.472Z,8.42
2022-10-09T00:43:31.453Z,8.42
2022-10-09T00:44:31.456Z,8.42
2022-10-09T00:45:31.448Z,8.42
2022-10-09T00:46:31.483Z,8.37
2022-10-09T00:47:31.425Z,8.40
2022-10-09T00:48:31.394Z,8.37
2022-10-09T00:49:31.399Z,8.39
2022-10-09T00:50:31.388Z,8.36
2022-10-09T00:51:31.365Z,8.33
2022-10-09T00:52:31.676Z,8.33
2022-10-09T00:53:31.344Z,8.32
2022-10-09T00:54:31.358Z,8.30
2022-10-09T00:55:31.341Z,8.35
2022-10-09T00:56:31.324Z,8.30
2022-10-09T00:57:31.289Z,8.29
2022-10-09T00:58:31.297Z,8.29
2022-10-09T00:59:31.282Z,8.29
2022-10-09T01:00:31.569Z,8.26
2022-10-09T01:01:31.388Z,8.25
2022-10-09T01:02:31.310Z,8.21
2022-10-09T01:03:31.226Z,8.18
2022-10-09T01:04:31.527Z,8.17
2022-10-09T01:05:31.199Z,8.18
2022-10-09T01:06:31.187Z,8.14
2022-10-09T01:07:31.186Z,8.15
2022-10-09T01:08:31.181Z,8.14
2022-10-09T01:09:31.173Z,8.11
2022-10-09T01:10:31.138Z,8.10
2022-10-09T01:11:31.246Z,8.08
2022-10-09T01:12:31.135Z,8.07
2022-10-09T01:13:31.107Z,8.04
2022-10-09T01:14:31.101Z,8.04
2022-10-09T01:15:31.148Z,8.03
2022-10-09T01:16:31.413Z,8.03
2022-10-09T01:17:31.079Z,8.02
2022-10-09T01:18:31.322Z,8.02
2022-10-09T01:19:31.039Z,8.00
2022-10-09T01:20:31.027Z,8.00
2022-10-09T01:21:31.329Z,8.00
2022-10-09T01:22:31.254Z,8.00
2022-10-09T01:23:31.004Z,8.00
2022-10-09T01:24:30.980Z,8.04
2022-10-09T01:25:30.972Z,8.00
2022-10-09T01:26:30.973Z,7.97
2022-10-09T01:27:31.228Z,7.96
2022-10-09T01:28:30.992Z,7.96
2022-10-09T01:29:30.920Z,7.94
2022-10-09T01:30:30.916Z,7.94
2022-10-09T01:31:30.968Z,7.93
2022-10-09T01:32:30.905Z,7.92
2022-10-09T01:33:31.211Z,7.92
2022-10-09T01:34:31.083Z,7.92
2022-10-09T01:35:30.856Z,7.87
2022-10-09T01:36:30.855Z,7.89
2022-10-09T01:37:30.952Z,7.89
2022-10-09T01:38:30.826Z,7.85
2022-10-09T01:39:31.032Z,7.85
2022-10-09T01:40:30.812Z,7.85
2022-10-09T01:41:30.786Z,7.85
2022-10-09T01:42:31.086Z,7.84
2022-10-09T01:43:33.747Z,7.85
2022-10-09T01:44:30.767Z,7.87
2022-10-09T01:45:30.757Z,7.85
2022-10-09T01:46:30.802Z,7.85
2022-10-09T01:47:30.725Z,7.85
2022-10-09T01:48:31.002Z,7.85
2022-10-09T01:49:30.706Z,7.85
2022-10-09T01:50:30.690Z,7.82
2022-10-09T01:51:30.674Z,7.85
2022-10-09T01:52:30.965Z,7.84
2022-10-09T01:53:30.636Z,7.81
2022-10-09T01:54:30.646Z,7.81
2022-10-09T01:55:30.628Z,7.79
2022-10-09T01:56:30.891Z,7.79
2022-10-09T01:57:30.897Z,7.78
2022-10-09T01:58:30.600Z,7.75
2022-10-09T01:59:30.568Z,7.75
2022-10-09T02:00:30.583Z,7.75
2022-10-09T02:01:30.603Z,7.75
2022-10-09T02:02:30.570Z,7.74
2022-10-09T02:03:30.779Z,7.69
2022-10-09T02:04:30.517Z,7.71
2022-10-09T02:05:30.507Z,7.67
2022-10-09T02:06:30.488Z,7.67
2022-10-09T02:07:30.479Z,7.66
2022-10-09T02:08:30.741Z,7.63
2022-10-09T02:09:30.457Z,7.66
2022-10-09T02:10:30.448Z,7.63
2022-10-09T02:11:30.450Z,7.62
2022-10-09T02:12:30.433Z,7.63
2022-10-09T02:13:30.709Z,7.62
2022-10-09T02:14:30.411Z,7.60
2022-10-09T02:15:30.390Z,7.60
2022-10-09T02:16:34.763Z,7.60
2022-10-09T02:17:31.388Z,7.60
2022-10-09T02:18:30.668Z,7.59
2022-10-09T02:19:30.353Z,7.59
2022-10-09T02:20:30.342Z,7.55
2022-10-09T02:21:30.325Z,7.55
2022-10-09T02:22:30.578Z,7.53
2022-10-09T02:23:30.311Z,7.52
2022-10-09T02:24:30.281Z,7.50
2022-10-09T02:25:30.270Z,7.49
2022-10-09T02:26:30.577Z,7.50
2022-10-09T02:27:30.265Z,7.50
2022-10-09T02:28:30.319Z,7.52
2022-10-09T02:29:30.222Z,7.52
2022-10-09T02:30:30.532Z,7.53
2022-10-09T02:31:30.288Z,7.50
2022-10-09T02:32:30.189Z,7.47
2022-10-09T02:33:30.474Z,7.50
2022-10-09T02:34:30.176Z,7.47
2022-10-09T02:35:30.166Z,7.45
2022-10-09T02:36:30.155Z,7.42
2022-10-09T02:37:30.134Z,7.41
2022-10-09T02:38:30.121Z,7.41
2022-10-09T02:39:30.412Z,7.41
2022-10-09T02:40:30.115Z,7.41
2022-10-09T02:41:30.096Z,7.40
2022-10-09T02:42:30.076Z,7.38
2022-10-09T02:43:30.054Z,7.37
2022-10-09T02:44:30.349Z,7.35
2022-10-09T02:45:30.079Z,7.35
2022-10-09T02:46:30.378Z,7.35
2022-10-09T02:47:30.027Z,7.34
2022-10-09T02:48:30.018Z,7.34
2022-10-09T02:49:30.306Z,7.34
2022-10-09T02:50:29.998Z,7.34
2022-10-09T02:51:29.987Z,7.32
2022-10-09T02:52:29.958Z,7.31
2022-10-09T02:53:29.945Z,7.29
2022-10-09T02:54:29.970Z,7.29
2022-10-09T02:55:29.926Z,7.29
2022-10-09T02:56:29.949Z,7.27
2022-10-09T02:57:29.893Z,7.31
2022-10-09T02:58:29.899Z,7.29
2022-10-09T02:59:29.880Z,7.27
2022-10-09T03:00:29.858Z,7.26
2022-10-09T03:01:30.190Z,7.24
2022-10-09T03:02:30.035Z,7.24
2022-10-09T03:03:29.826Z,7.24
2022-10-09T03:04:29.817Z,7.23
2022-10-09T03:05:29.831Z,7.22
2022-10-09T03:06:29.806Z,7.23
2022-10-09T03:07:29.778Z,7.22
2022-10-09T03:08:29.781Z,7.19
2022-10-09T03:09:33.546Z,7.17
2022-10-09T03:10:30.070Z,7.16
2022-10-09T03:11:29.729Z,7.15
2022-10-09T03:12:29.719Z,7.15
2022-10-09T03:13:29.709Z,7.15
2022-10-09T03:14:29.713Z,7.13
2022-10-09T03:15:29.890Z,7.12
2022-10-09T03:16:29.759Z,7.09
2022-10-09T03:17:29.671Z,7.07
2022-10-09T03:18:29.651Z,7.05
2022-10-09T03:19:29.640Z,7.04
2022-10-09T03:20:29.644Z,7.04
2022-10-09T03:21:29.928Z,7.02
2022-10-09T03:22:29.625Z,7.02
2022-10-09T03:23:29.599Z,7.01
2022-10-09T03:24:29.581Z,7.02
2022-10-09T03:25:29.586Z,6.99
2022-10-09T03:26:29.596Z,7.01
2022-10-09T03:27:29.564Z,7.01
2022-10-09T03:28:29.574Z,7.01
2022-10-09T03:29:29.540Z,7.01
2022-10-09T03:30:29.802Z,7.01
2022-10-09T03:32:30.731Z,6.99
2022-10-09T03:33:29.486Z,6.99
2022-10-09T03:34:29.483Z,6.98
2022-10-09T03:35:29.452Z,6.97
2022-10-09T03:36:29.693Z,6.95
2022-10-09T03:37:29.445Z,6.97
2022-10-09T03:38:29.422Z,6.95
2022-10-09T03:39:29.402Z,6.95
2022-10-09T03:40:29.407Z,6.94
2022-10-09T03:41:29.657Z,6.95
2022-10-09T03:42:29.373Z,6.94
2022-10-09T03:43:29.375Z,6.91
2022-10-09T03:44:29.367Z,6.90
2022-10-09T03:45:29.334Z,6.89
2022-10-09T03:46:29.662Z,6.90
2022-10-09T03:47:29.325Z,6.90
2022-10-09T03:48:29.317Z,6.87
2022-10-09T03:49:29.548Z,6.86
2022-10-09T03:50:29.290Z,6.87
2022-10-09T03:51:29.265Z,6.86
2022-10-09T03:52:29.529Z,6.84
2022-10-09T03:53:29.556Z,6.84
2022-10-09T03:54:29.240Z,6.83
2022-10-09T03:55:29.216Z,6.83
2022-10-09T03:56:29.220Z,6.84
2022-10-09T03:57:29.197Z,6.83
2022-10-09T03:58:29.199Z,6.83
2022-10-09T03:59:29.503Z,6.81
2022-10-09T04:00:29.173Z,6.83
2022-10-09T04:01:29.254Z,6.81
2022-10-09T04:02:29.373Z,6.80
2022-10-09T04:03:29.119Z,6.80
2022-10-09T04:04:29.115Z,6.80
2022-10-09T04:05:29.105Z,6.83
2022-10-09T04:06:29.087Z,6.81
2022-10-09T04:07:29.421Z,6.81
2022-10-09T04:08:29.081Z,6.83
2022-10-09T04:09:29.059Z,6.84
2022-10-09T04:10:29.039Z,6.84
2022-10-09T04:11:29.043Z,6.86
2022-10-09T04:12:29.020Z,6.86
2022-10-09T04:13:29.277Z,6.86
2022-10-09T04:14:29.299Z,6.87
2022-10-09T04:15:29.002Z,6.84
2022-10-09T04:16:29.083Z,6.84
2022-10-09T04:17:29.215Z,6.81
2022-10-09T04:18:29.251Z,6.83
2022-10-09T04:19:29.283Z,6.83
2022-10-09T04:20:28.933Z,6.81
2022-10-09T04:21:28.920Z,6.80
2022-10-09T04:22:28.903Z,6.80
2022-10-09T04:23:28.892Z,6.77
2022-10-09T04:24:29.125Z,6.77
2022-10-09T04:25:28.886Z,6.76
2022-10-09T04:26:28.863Z,6.77
2022-10-09T04:27:29.085Z,6.77
2022-10-09T04:28:28.919Z,6.80
2022-10-09T04:29:28.821Z,6.77
2022-10-09T04:30:28.813Z,6.79
2022-10-09T04:31:28.911Z,6.76
2022-10-09T04:32:29.090Z,6.73
2022-10-09T04:33:28.776Z,6.72
2022-10-09T04:34:29.063Z,6.72
2022-10-09T04:35:28.758Z,6.69
2022-10-09T04:36:35.743Z,6.69
2022-10-09T04:37:28.731Z,6.66
2022-10-09T04:38:28.721Z,6.66
2022-10-09T04:39:28.904Z,6.63
2022-10-09T04:40:28.704Z,6.63
2022-10-09T04:41:28.685Z,6.62
2022-10-09T04:42:28.876Z,6.59
2022-10-09T04:43:28.668Z,6.58
2022-10-09T04:44:28.657Z,6.56
2022-10-09T04:45:28.676Z,6.56
2022-10-09T04:46:28.820Z,6.56
2022-10-09T04:47:28.612Z,6.54
2022-10-09T04:48:28.596Z,6.53
2022-10-09T04:49:28.589Z,6.54
2022-10-09T04:50:28.565Z,6.53
2022-10-09T04:51:28.769Z,6.53
2022-10-09T04:52:28.547Z,6.50
2022-10-09T04:53:28.549Z,6.51
2022-10-09T04:54:28.536Z,6.50
2022-10-09T04:55:28.518Z,6.47
2022-10-09T04:56:28.516Z,6.48
2022-10-09T04:57:28.487Z,6.46
2022-10-09T04:58:28.482Z,6.47
2022-10-09T04:59:28.674Z,6.46
2022-10-09T05:00:28.469Z,6.44
2022-10-09T05:01:28.519Z,6.46
2022-10-09T05:02:28.467Z,6.44
2022-10-09T05:03:28.639Z,6.43
2022-10-09T05:04:28.422Z,6.43
2022-10-09T05:05:28.398Z,6.41
2022-10-09T05:06:28.400Z,6.43
2022-10-09T05:07:28.678Z,6.46
2022-10-09T05:08:28.359Z,6.46
2022-10-09T05:09:28.351Z,6.44
2022-10-09T05:10:28.350Z,6.44
2022-10-09T05:11:28.341Z,6.43
2022-10-09T05:12:28.540Z,6.41
2022-10-09T05:13:28.311Z,6.41
2022-10-09T05:14:28.356Z,6.40
2022-10-09T05:15:28.502Z,6.38
2022-10-09T05:16:28.581Z,6.38
2022-10-09T05:17:28.300Z,6.38
2022-10-09T05:18:28.255Z,6.36
2022-10-09T05:19:28.243Z,6.38
2022-10-09T05:20:28.219Z,6.35
2022-10-09T05:21:28.415Z,6.35
2022-10-09T05:22:28.190Z,6.35
2022-10-09T05:23:28.209Z,6.35
2022-10-09T05:24:28.171Z,6.33
2022-10-09T05:25:28.175Z,6.32
2022-10-09T05:26:28.491Z,6.29
2022-10-09T05:27:28.149Z,6.28
2022-10-09T05:28:28.171Z,6.28
2022-10-09T05:29:28.121Z,6.26
2022-10-09T05:30:28.494Z,6.26
2022-10-09T05:31:28.160Z,6.22
2022-10-09T05:32:28.083Z,6.21
2022-10-09T05:33:28.087Z,6.21
2022-10-09T05:34:28.403Z,6.18
2022-10-09T05:35:28.052Z,6.16
2022-10-09T05:36:28.045Z,6.13
2022-10-09T05:37:28.317Z,6.11
2022-10-09T05:38:28.015Z,6.13
2022-10-09T05:39:28.004Z,6.13
2022-10-09T05:40:29.311Z,6.10
2022-10-09T05:41:27.973Z,6.10
2022-10-09T05:42:28.314Z,6.09
2022-10-09T05:43:27.953Z,6.09
2022-10-09T05:44:27.958Z,6.09
2022-10-09T05:45:28.013Z,6.10
2022-10-09T05:46:28.244Z,6.10
2022-10-09T05:47:27.905Z,6.10
2022-10-09T05:48:27.894Z,6.10
2022-10-09T05:49:27.899Z,6.10
2022-10-09T05:50:27.865Z,6.10
2022-10-09T05:51:28.099Z,6.10
2022-10-09T05:52:27.846Z,6.11
2022-10-09T05:53:27.848Z,6.10
2022-10-09T05:54:27.824Z,6.11
2022-10-09T05:55:27.835Z,6.13
2022-10-09T05:56:27.798Z,6.13
2022-10-09T05:57:28.045Z,6.13
2022-10-09T05:58:27.789Z,6.13
2022-10-09T05:59:27.779Z,6.13
2022-10-09T06:00:27.769Z,6.13
2022-10-09T06:01:27.808Z,6.14
2022-10-09T06:02:28.134Z,6.14
2022-10-09T06:03:27.741Z,6.13
2022-10-09T06:04:27.717Z,6.13
2022-10-09T06:05:27.960Z,6.13
2022-10-09T06:06:27.697Z,6.14
2022-10-09T06:07:27.667Z,6.16
2022-10-09T06:08:27.668Z,6.16
2022-10-09T06:09:27.655Z,6.16
2022-10-09T06:10:32.089Z,6.16
2022-10-09T06:11:27.641Z,6.18
2022-10-09T06:12:27.941Z,6.18
2022-10-09T06:13:27.621Z,6.19
2022-10-09T06:14:27.602Z,6.21
2022-10-09T06:15:27.578Z,6.19
2022-10-09T06:16:27.765Z,6.21
2022-10-09T06:17:27.573Z,6.22
2022-10-09T06:18:27.538Z,6.22
2022-10-09T06:19:27.529Z,6.22
2022-10-09T06:20:27.737Z,6.21
2022-10-09T06:21:27.523Z,6.21
2022-10-09T06:22:27.710Z,6.22
2022-10-09T06:23:27.625Z,6.21
2022-10-09T06:24:29.344Z,6.21
2022-10-09T06:25:27.460Z,6.22
2022-10-09T06:26:27.764Z,6.21
2022-10-09T06:27:27.465Z,6.21
2022-10-09T06:28:27.474Z,6.25
2022-10-09T06:29:27.427Z,6.25
2022-10-09T06:30:27.792Z,6.26
2022-10-09T06:31:27.670Z,6.29
2022-10-09T06:32:27.432Z,6.30
2022-10-09T06:33:27.405Z,6.30
2022-10-09T06:34:27.373Z,6.35
2022-10-09T06:35:27.355Z,6.35
2022-10-09T06:36:27.652Z,6.35
2022-10-09T06:37:27.343Z,6.40
2022-10-09T06:38:27.303Z,6.40
2022-10-09T06:39:27.316Z,6.43
2022-10-09T06:40:27.320Z,6.46
2022-10-09T06:41:27.516Z,6.47
2022-10-09T06:42:29.998Z,6.48
2022-10-09T06:43:27.275Z,6.50
2022-10-09T06:44:27.553Z,6.50
2022-10-09T06:45:27.223Z,6.51
2022-10-09T06:46:27.272Z,6.53
2022-10-09T06:47:27.204Z,6.54
2022-10-09T06:48:27.195Z,6.56
2022-10-09T06:49:27.468Z,6.59
2022-10-09T06:50:27.229Z,6.59
2022-10-09T06:51:27.178Z,6.61
2022-10-09T06:52:27.175Z,6.62
2022-10-09T06:53:27.170Z,6.63
2022-10-09T06:54:27.125Z,6.66
2022-10-09T06:55:28.858Z,6.68
2022-10-09T06:56:27.095Z,6.71
2022-10-09T06:57:27.339Z,6.72
2022-10-09T06:58:27.076Z,6.76
2022-10-09T06:59:27.075Z,6.80
2022-10-09T07:00:27.086Z,6.83
2022-10-09T07:01:27.154Z,6.84
2022-10-09T07:02:27.055Z,6.87
2022-10-09T07:03:27.336Z,6.89
2022-10-09T07:04:27.020Z,6.91
2022-10-09T07:05:27.009Z,6.95
2022-10-09T07:06:27.022Z,6.98
2022-10-09T07:07:26.977Z,7.02
2022-10-09T07:08:27.266Z,7.07
2022-10-09T07:09:26.961Z,7.09
2022-10-09T07:10:26.952Z,7.15
2022-10-09T07:11:26.960Z,7.16
2022-10-09T07:12:26.908Z,7.19
2022-10-09T07:13:26.905Z,7.22
2022-10-09T07:14:26.903Z,7.24
2022-10-09T07:15:26.946Z,7.26
2022-10-09T07:16:26.918Z,7.27
2022-10-09T07:17:26.872Z,7.34
2022-10-09T07:18:26.852Z,7.37
2022-10-09T07:19:26.830Z,7.42
2022-10-09T07:20:26.877Z,7.44
2022-10-09T07:21:26.850Z,7.49
2022-10-09T07:22:27.243Z,7.52
2022-10-09T07:23:26.802Z,7.56
2022-10-09T07:24:26.789Z,7.58
2022-10-09T07:25:26.759Z,7.63
2022-10-09T07:26:26.778Z,7.69
2022-10-09T07:27:27.043Z,7.72
2022-10-09T07:28:26.730Z,7.78
2022-10-09T07:29:26.734Z,7.81
2022-10-09T07:30:26.700Z,7.85
2022-10-09T07:31:26.823Z,7.90
2022-10-09T07:32:26.679Z,7.96
2022-10-09T07:33:26.671Z,8.02
2022-10-09T07:34:26.693Z,8.08
2022-10-09T07:35:26.668Z,8.12
2022-10-09T07:36:26.663Z,8.17
2022-10-09T07:37:26.621Z,8.22
2022-10-09T07:38:26.624Z,8.29
2022-10-09T07:39:26.823Z,8.35
2022-10-09T07:40:26.598Z,8.39
2022-10-09T07:41:26.597Z,8.44
2022-10-09T07:42:26.577Z,8.51
2022-10-09T07:43:26.567Z,8.53
2022-10-09T07:44:26.852Z,8.55
2022-10-09T07:45:26.546Z,8.65
2022-10-09T07:46:30.762Z,8.68
2022-10-09T07:47:27.504Z,8.73
2022-10-09T07:48:26.495Z,8.78
2022-10-09T07:49:26.815Z,8.83
2022-10-09T07:50:26.483Z,8.88
2022-10-09T07:51:26.464Z,8.94
2022-10-09T07:52:26.446Z,8.99
2022-10-09T07:53:26.435Z,9.05
2022-10-09T07:54:26.422Z,9.12
2022-10-09T07:55:26.717Z,9.16
2022-10-09T07:56:26.428Z,9.23
2022-10-09T07:57:26.408Z,9.28
2022-10-09T07:58:26.376Z,9.32
2022-10-09T07:59:26.379Z,9.38
2022-10-09T08:00:26.347Z,9.43
2022-10-09T08:01:26.594Z,9.48
2022-10-09T08:02:26.384Z,9.53
2022-10-09T08:03:26.318Z,9.60
2022-10-09T08:04:26.323Z,9.67
2022-10-09T08:05:26.287Z,9.71
2022-10-09T08:06:26.278Z,9.78
2022-10-09T08:07:29.313Z,9.81
2022-10-09T08:08:26.258Z,9.83
2022-10-09T08:09:26.445Z,9.91
2022-10-09T08:10:26.237Z,9.94
2022-10-09T08:11:26.541Z,9.99
2022-10-09T08:12:26.230Z,10.06
2022-10-09T08:13:26.198Z,10.12
2022-10-09T08:14:26.202Z,10.19
2022-10-09T08:15:26.214Z,10.24
2022-10-09T08:16:26.170Z,10.30
2022-10-09T08:17:26.490Z,10.34
2022-10-09T08:18:26.140Z,10.39
2022-10-09T08:19:26.128Z,10.46
2022-10-09T08:20:26.133Z,10.52
2022-10-09T08:21:26.110Z,10.56
2022-10-09T08:22:26.391Z,10.62
2022-10-09T08:23:26.084Z,10.65
2022-10-09T08:24:26.096Z,10.73
2022-10-09T08:25:26.076Z,10.78
2022-10-09T08:26:26.054Z,10.84
2022-10-09T08:27:26.036Z,10.89
2022-10-09T08:28:26.071Z,10.95
2022-10-09T08:29:26.313Z,10.99
2022-10-09T08:30:25.992Z,11.06
2022-10-09T08:31:26.141Z,11.10
2022-10-09T08:32:25.973Z,11.16
2022-10-09T08:33:26.174Z,11.25
2022-10-09T08:34:25.985Z,11.29
2022-10-09T08:35:26.826Z,11.35
2022-10-09T08:36:25.938Z,11.43
2022-10-09T08:37:25.913Z,11.46
2022-10-09T08:38:46.042Z,11.52
2022-10-09T08:39:27.095Z,11.59
2022-10-09T08:40:25.895Z,11.64
2022-10-09T08:41:25.887Z,11.70
2022-10-09T08:42:25.855Z,11.75
2022-10-09T08:43:25.855Z,11.83
2022-10-09T08:44:26.124Z,11.87
2022-10-09T08:45:25.839Z,11.94
2022-10-09T08:46:25.852Z,12.02
2022-10-09T08:47:25.800Z,12.08
2022-10-09T08:48:25.803Z,12.16
2022-10-09T08:49:25.791Z,12.24
2022-10-09T08:50:26.049Z,12.31
2022-10-09T08:51:25.777Z,12.39
2022-10-09T08:52:25.754Z,12.46
2022-10-09T08:53:25.728Z,12.56
2022-10-09T08:54:25.718Z,12.59
2022-10-09T08:55:25.972Z,12.69
2022-10-09T08:56:25.699Z,12.78
2022-10-09T08:57:25.707Z,12.84
2022-10-09T08:58:25.682Z,12.88
2022-10-09T08:59:25.671Z,12.95
2022-10-09T09:00:25.663Z,13.02
2022-10-09T09:01:25.940Z,13.09
2022-10-09T09:02:25.675Z,13.15
2022-10-09T09:03:25.624Z,13.20
2022-10-09T09:04:25.623Z,13.24
2022-10-09T09:05:25.850Z,13.30
2022-10-09T09:06:25.591Z,13.37
2022-10-09T09:07:25.586Z,13.44
2022-10-09T09:08:25.772Z,13.52
2022-10-09T09:09:25.542Z,13.59
2022-10-09T09:10:25.531Z,13.65
2022-10-09T09:11:25.723Z,13.71
2022-10-09T09:12:25.512Z,13.77
2022-10-09T09:13:25.507Z,13.81
2022-10-09T09:14:25.784Z,13.87
2022-10-09T09:15:25.491Z,13.92
2022-10-09T09:16:25.521Z,13.96
2022-10-09T09:17:25.459Z,14.04
2022-10-09T09:18:25.457Z,14.09
2022-10-09T09:19:25.748Z,14.14
2022-10-09T09:20:25.415Z,14.19
2022-10-09T09:21:25.412Z,14.21
2022-10-09T09:22:25.388Z,14.29
2022-10-09T09:23:25.389Z,14.38
2022-10-09T09:24:25.636Z,14.43
2022-10-09T09:25:25.350Z,14.50
2022-10-09T09:26:25.356Z,14.50
2022-10-09T09:27:25.340Z,14.54
2022-10-09T09:28:25.382Z,14.57
2022-10-09T09:29:25.629Z,14.65
2022-10-09T09:30:25.347Z,14.74
2022-10-09T09:31:25.403Z,14.84
2022-10-09T09:32:25.289Z,14.88
2022-10-09T09:33:25.262Z,14.94
2022-10-09T09:34:25.578Z,15.02
2022-10-09T09:35:25.253Z,15.08
2022-10-09T09:36:25.242Z,15.11
2022-10-09T09:37:25.227Z,15.15
2022-10-09T09:38:25.213Z,15.17
2022-10-09T09:40:46.589Z,15.23
2022-10-09T09:41:26.160Z,15.27
2022-10-09T09:42:25.174Z,15.30
2022-10-09T09:43:25.169Z,15.33
2022-10-09T09:44:25.351Z,15.38
2022-10-09T09:45:25.402Z,15.39
2022-10-09T09:46:25.194Z,15.45
2022-10-09T09:47:25.092Z,15.51
2022-10-09T09:48:25.115Z,15.57
2022-10-09T09:49:25.373Z,15.61
2022-10-09T09:50:46.149Z,15.67
2022-10-09T09:51:28.834Z,15.75
2022-10-09T09:52:25.055Z,15.78
2022-10-09T09:53:25.027Z,15.81
2022-10-09T09:54:25.237Z,15.85
2022-10-09T09:55:25.004Z,15.89
2022-10-09T09:56:25.007Z,15.94
2022-10-09T09:57:25.185Z,16.00
2022-10-09T09:58:24.973Z,16.04
2022-10-09T09:59:24.956Z,16.11
2022-10-09T10:00:24.947Z,16.15
2022-10-09T10:01:25.231Z,16.15
2022-10-09T10:02:25.273Z,16.18
2022-10-09T10:03:24.910Z,16.25
2022-10-09T10:04:24.899Z,16.25
2022-10-09T10:05:24.879Z,16.25
2022-10-09T10:06:24.889Z,16.30
2022-10-09T10:07:25.181Z,16.34
2022-10-09T10:08:24.851Z,16.34
2022-10-09T10:09:24.869Z,16.38
2022-10-09T10:10:25.811Z,16.41
2022-10-09T10:11:25.120Z,16.45
2022-10-09T10:12:25.070Z,16.52
2022-10-09T10:13:24.800Z,16.50
2022-10-09T10:14:24.793Z,16.50
2022-10-09T10:15:24.777Z,16.58
2022-10-09T10:16:24.803Z,16.67
2022-10-09T10:17:25.232Z,16.73
2022-10-09T10:18:24.745Z,16.77
2022-10-09T10:19:24.738Z,16.83
2022-10-09T10:20:24.711Z,16.85
2022-10-09T10:21:24.715Z,16.86
2022-10-09T10:22:24.682Z,16.88
2022-10-09T10:23:24.865Z,16.88
2022-10-09T10:24:24.663Z,16.92
2022-10-09T10:25:24.667Z,16.93
2022-10-09T10:26:24.872Z,16.98
2022-10-09T10:27:24.643Z,17.04
2022-10-09T10:28:24.693Z,17.07
2022-10-09T10:29:24.610Z,17.04
2022-10-09T10:30:24.605Z,17.04
2022-10-09T10:31:24.649Z,17.07
2022-10-09T10:32:24.579Z,17.11
2022-10-09T10:33:24.554Z,17.20
2022-10-09T10:34:24.557Z,17.22
2022-10-09T10:35:24.751Z,17.20
2022-10-09T10:36:24.530Z,17.22
2022-10-09T10:37:31.684Z,17.25
2022-10-09T10:38:24.514Z,17.25
2022-10-09T10:39:24.483Z,17.25
2022-10-09T10:40:24.686Z,17.26
2022-10-09T10:41:24.483Z,17.28
2022-10-09T10:42:24.445Z,17.28
2022-10-09T10:43:24.448Z,17.25
2022-10-09T10:44:24.666Z,17.30
2022-10-09T10:45:24.405Z,17.32
2022-10-09T10:46:24.431Z,17.33
2022-10-09T10:47:24.402Z,17.36
2022-10-09T10:48:24.389Z,17.44
2022-10-09T10:49:24.681Z,17.47
2022-10-09T10:50:24.354Z,17.53
2022-10-09T10:51:24.615Z,17.57
2022-10-09T10:52:24.336Z,17.64
2022-10-09T10:53:24.317Z,17.66
2022-10-09T10:54:24.308Z,17.67
2022-10-09T10:55:24.299Z,17.71
2022-10-09T10:56:24.306Z,17.74
2022-10-09T10:57:24.558Z,17.81
2022-10-09T10:58:24.265Z,17.81
2022-10-09T10:59:24.253Z,17.85
2022-10-09T11:00:24.519Z,17.88
2022-10-09T11:01:24.316Z,17.87
2022-10-09T11:02:24.222Z,17.91
2022-10-09T11:03:24.239Z,17.88
2022-10-09T11:04:24.190Z,17.88
2022-10-09T11:05:24.193Z,17.87
2022-10-09T11:06:24.191Z,17.89
2022-10-09T11:07:24.154Z,17.89
2022-10-09T11:08:24.144Z,17.91
2022-10-09T11:09:24.147Z,17.89
2022-10-09T11:10:24.133Z,17.89
2022-10-09T11:11:24.105Z,17.91
2022-10-09T11:12:46.624Z,17.91
2022-10-09T11:13:25.098Z,17.92
2022-10-09T11:14:24.087Z,17.91
2022-10-09T11:15:24.077Z,17.92
2022-10-09T11:16:24.162Z,17.94
2022-10-09T11:17:24.060Z,17.94
2022-10-09T11:18:24.068Z,17.97
2022-10-09T11:19:24.340Z,18.02
2022-10-09T11:20:24.020Z,18.04
2022-10-09T11:21:24.005Z,18.13
2022-10-09T11:22:24.301Z,18.15
2022-10-09T11:23:23.981Z,18.18
2022-10-09T11:24:23.971Z,18.21
2022-10-09T11:25:24.257Z,18.27
2022-10-09T11:26:23.928Z,18.33
2022-10-09T11:27:24.242Z,18.28
2022-10-09T11:28:23.944Z,18.25
2022-10-09T11:29:23.899Z,18.27
2022-10-09T11:30:23.903Z,18.28
2022-10-09T11:31:23.935Z,18.25
2022-10-09T11:32:23.891Z,18.24
2022-10-09T11:33:24.152Z,18.24
2022-10-09T11:34:23.840Z,18.28
2022-10-09T11:35:23.842Z,18.25
2022-10-09T11:36:23.823Z,18.28
2022-10-09T11:37:23.816Z,18.33
2022-10-09T11:38:24.015Z,18.37
2022-10-09T11:39:23.785Z,18.42
2022-10-09T11:40:23.771Z,18.42
2022-10-09T11:41:23.753Z,18.40
2022-10-09T11:42:23.753Z,18.40
2022-10-09T11:43:23.726Z,18.43
2022-10-09T11:44:24.058Z,18.40
2022-10-09T11:45:23.741Z,18.44
2022-10-09T11:46:23.718Z,18.42
2022-10-09T11:47:23.686Z,18.39
2022-10-09T11:48:23.677Z,18.40
2022-10-09T11:49:23.938Z,18.36
2022-10-09T11:50:23.667Z,18.31
2022-10-09T11:51:23.650Z,18.31
2022-10-09T11:52:23.645Z,18.34
2022-10-09T11:53:23.928Z,18.39
2022-10-09T11:54:23.623Z,18.37
2022-10-09T11:55:23.601Z,18.34
2022-10-09T11:56:23.600Z,18.40
2022-10-09T11:57:23.882Z,18.44
2022-10-09T11:58:23.577Z,18.49
2022-10-09T11:59:23.552Z,18.55
2022-10-09T12:00:23.530Z,18.58
2022-10-09T12:01:23.778Z,18.59
2022-10-09T12:02:23.567Z,18.58
2022-10-09T12:03:23.491Z,18.59
2022-10-09T12:04:32.330Z,18.61
2022-10-09T12:05:24.495Z,18.62
2022-10-09T12:06:23.472Z,18.61
2022-10-09T12:07:23.558Z,18.61
2022-10-09T12:08:23.444Z,18.61
2022-10-09T12:09:23.423Z,18.59
2022-10-09T12:10:23.435Z,18.59
2022-10-09T12:11:23.407Z,18.64
2022-10-09T12:12:23.403Z,18.64
2022-10-09T12:13:23.389Z,18.68
2022-10-09T12:14:23.374Z,18.68
2022-10-09T12:15:23.356Z,18.68
2022-10-09T12:16:23.387Z,18.65
2022-10-09T12:17:23.547Z,18.67
2022-10-09T12:18:23.329Z,18.70
2022-10-09T12:19:23.314Z,18.68
2022-10-09T12:20:23.309Z,18.68
2022-10-09T12:21:23.581Z,18.72
2022-10-09T12:22:23.290Z,18.73
2022-10-09T12:23:27.627Z,18.76
2022-10-09T12:24:23.262Z,18.73
2022-10-09T12:25:23.239Z,18.72
2022-10-09T12:26:23.441Z,18.76
2022-10-09T12:27:23.233Z,18.77
2022-10-09T12:28:23.264Z,18.84
2022-10-09T12:29:23.202Z,18.87
2022-10-09T12:30:23.213Z,18.86
2022-10-09T12:31:23.442Z,18.84
2022-10-09T12:32:23.161Z,18.86
2022-10-09T12:33:23.151Z,18.92
2022-10-09T12:34:23.155Z,18.97
2022-10-09T12:35:23.381Z,19.01
2022-10-09T12:36:23.120Z,19.05
2022-10-09T12:37:23.117Z,18.99
2022-10-09T12:38:23.116Z,19.02
2022-10-09T12:39:23.118Z,19.05
2022-10-09T12:40:23.086Z,19.10
2022-10-09T12:41:23.085Z,19.15
2022-10-09T12:42:23.104Z,19.20
2022-10-09T12:43:23.344Z,19.25
2022-10-09T12:44:23.024Z,19.28
2022-10-09T12:45:23.028Z,19.28
2022-10-09T12:46:23.057Z,19.31
2022-10-09T12:47:22.986Z,19.28
2022-10-09T12:48:22.995Z,19.32
2022-10-09T12:49:22.982Z,19.28
2022-10-09T12:50:22.968Z,19.24
2022-10-09T12:51:22.961Z,19.17
2022-10-09T12:52:22.942Z,19.18
2022-10-09T12:53:23.197Z,19.18
2022-10-09T12:54:22.922Z,19.18
2022-10-09T12:55:22.913Z,19.20
2022-10-09T12:56:22.892Z,19.20
2022-10-09T12:57:24.058Z,19.17
2022-10-09T12:58:22.887Z,19.11
2022-10-09T12:59:22.863Z,19.11
2022-10-09T13:00:22.852Z,19.11
2022-10-09T13:01:22.930Z,19.11
2022-10-09T13:02:22.916Z,19.14
2022-10-09T13:03:22.829Z,19.17
2022-10-09T13:04:22.792Z,19.14
2022-10-09T13:05:22.795Z,19.14
2022-10-09T13:06:22.986Z,19.15
2022-10-09T13:07:22.776Z,19.17
2022-10-09T13:08:22.754Z,19.15
2022-10-09T13:09:22.745Z,19.14
2022-10-09T13:10:22.737Z,19.13